createdAt,value
2022-12-24T00:01:28.477Z,23.10
2022-12-24T00:04:00.597Z,22.75
2022-12-24T00:06:29.916Z,20.27
2022-12-24T00:08:57.945Z,23.92
2022-12-24T00:11:25.927Z,24.55
2022-12-24T00:13:53.921Z,24.83
2022-12-24T00:16:21.984Z,27.48
2022-12-24T00:18:49.936Z,25.30
2022-12-24T00:21:18.004Z,25.98
2022-12-24T00:23:47.585Z,25.02
2022-12-24T00:26:16.096Z,24.58
2022-12-24T00:28:44.224Z,25.40
2022-12-24T00:31:14.532Z,26.58
2022-12-24T00:33:43.088Z,28.70
2022-12-24T00:36:11.502Z,25.95
2022-12-24T00:38:40.131Z,25.25
2022-12-24T00:41:24.749Z,25.30
2022-12-24T00:43:54.357Z,25.13
2022-12-24T00:46:23.328Z,26.67
2022-12-24T00:48:51.414Z,28.73
2022-12-24T00:51:19.878Z,30.38
2022-12-24T00:53:48.374Z,30.98
2022-12-24T00:56:18.014Z,32.45
2022-12-24T00:58:46.246Z,31.70
2022-12-24T01:01:14.633Z,31.95
2022-12-24T01:03:42.739Z,33.40
2022-12-24T01:06:12.303Z,32.45
2022-12-24T01:08:40.638Z,32.00
2022-12-24T01:11:10.223Z,32.80
2022-12-24T01:13:39.645Z,35.38
2022-12-24T01:16:16.272Z,33.72
2022-12-24T01:18:44.370Z,34.20
2022-12-24T01:21:12.453Z,38.03
2022-12-24T01:23:40.513Z,36.50
2022-12-24T01:26:08.563Z,35.65
2022-12-24T01:28:36.560Z,38.70
2022-12-24T01:31:12.260Z,38.38
2022-12-24T01:33:40.236Z,41.22
2022-12-24T01:36:08.626Z,39.95
2022-12-24T01:38:36.658Z,42.38
2022-12-24T01:41:21.812Z,48.55
2022-12-24T01:43:49.866Z,47.95
2022-12-24T01:46:25.267Z,46.13
2022-12-24T01:48:56.672Z,43.70
2022-12-24T01:51:31.480Z,43.45
2022-12-24T01:54:04.055Z,44.30
2022-12-24T01:56:33.349Z,45.00
2022-12-24T01:59:05.854Z,45.05
2022-12-24T02:01:35.561Z,43.28
2022-12-24T02:04:12.581Z,43.28
2022-12-24T02:06:40.592Z,44.42
2022-12-24T02:09:08.752Z,45.80
2022-12-24T02:11:40.166Z,44.20
2022-12-24T02:14:08.788Z,45.35
2022-12-24T02:16:47.362Z,49.67
2022-12-24T02:19:35.428Z,45.33
2022-12-24T02:22:05.457Z,51.58
2022-12-24T02:25:03.623Z,54.88
2022-12-24T02:27:45.991Z,56.78
2022-12-24T02:30:20.240Z,64.40
2022-12-24T02:33:03.524Z,63.20
2022-12-24T02:35:38.854Z,62.40
2022-12-24T02:38:14.384Z,67.88
2022-12-24T02:40:47.524Z,71.88
2022-12-24T02:43:20.730Z,73.93
2022-12-24T02:45:59.271Z,74.10
2022-12-24T02:48:28.965Z,72.57
2022-12-24T02:51:04.062Z,75.93
2022-12-24T02:53:32.986Z,72.53
2022-12-24T02:56:32.446Z,78.63
2022-12-24T02:59:32.973Z,76.40
2022-12-24T03:02:13.813Z,73.32
2022-12-24T03:04:52.019Z,73.68
2022-12-24T03:07:25.145Z,76.55
2022-12-24T03:10:03.103Z,76.90
2022-12-24T03:12:35.874Z,82.80
2022-12-24T03:15:05.713Z,82.03
2022-12-24T03:17:38.259Z,78.95
2022-12-24T03:20:09.578Z,82.53
2022-12-24T03:22:38.141Z,85.07
2022-12-24T03:25:07.163Z,90.03
2022-12-24T03:27:36.812Z,85.78
2022-12-24T03:30:09.421Z,83.18
2022-12-24T03:32:38.824Z,89.20
2022-12-24T03:35:07.268Z,86.65
2022-12-24T03:37:35.256Z,83.88
2022-12-24T03:40:03.252Z,85.07
2022-12-24T03:42:31.190Z,80.03
2022-12-24T03:44:59.235Z,82.85
2022-12-24T03:47:27.228Z,78.40
2022-12-24T03:49:56.569Z,75.47
2022-12-24T03:52:24.523Z,71.13
2022-12-24T03:54:52.503Z,72.93
2022-12-24T03:57:20.454Z,72.75
2022-12-24T03:59:48.398Z,70.60
2022-12-24T04:02:16.518Z,67.78
2022-12-24T04:04:44.664Z,65.88
2022-12-24T04:07:13.946Z,67.63
2022-12-24T04:09:42.060Z,66.32
2022-12-24T04:12:10.249Z,64.40
2022-12-24T04:14:38.254Z,64.63
2022-12-24T04:17:06.419Z,61.08
2022-12-24T04:19:34.711Z,66.60
2022-12-24T04:22:02.707Z,62.85
2022-12-24T04:24:32.001Z,60.78
2022-12-24T04:26:59.939Z,57.33
2022-12-24T04:29:27.934Z,62.30
2022-12-24T04:31:55.928Z,59.25
2022-12-24T04:34:23.934Z,52.88
2022-12-24T04:36:51.906Z,53.53
2022-12-24T04:39:20.047Z,58.75
2022-12-24T04:41:49.384Z,57.50
2022-12-24T04:44:17.350Z,59.03
2022-12-24T04:46:45.323Z,59.30
2022-12-24T04:49:13.421Z,64.75
2022-12-24T04:51:41.391Z,64.57
2022-12-24T04:54:09.364Z,66.43
2022-12-24T04:56:37.304Z,66.13
2022-12-24T04:59:06.655Z,62.45
2022-12-24T05:01:34.919Z,63.22
2022-12-24T05:04:02.965Z,67.25
2022-12-24T05:06:33.103Z,65.38
2022-12-24T05:09:01.978Z,69.82
2022-12-24T05:11:30.285Z,71.10
2022-12-24T05:13:58.449Z,65.65
2022-12-24T05:16:27.928Z,69.47
2022-12-24T05:18:56.061Z,69.72
2022-12-24T05:21:26.100Z,68.78
2022-12-24T05:24:11.508Z,67.35
2022-12-24T05:26:43.115Z,63.42
2022-12-24T05:29:13.161Z,64.07
2022-12-24T05:31:43.601Z,65.30
2022-12-24T05:34:11.949Z,64.30
2022-12-24T05:36:40.519Z,65.93
2022-12-24T05:39:15.191Z,61.05
2022-12-24T05:41:44.126Z,63.35
2022-12-24T05:44:12.207Z,62.40
2022-12-24T05:46:40.320Z,62.25
2022-12-24T05:49:10.010Z,55.80
2022-12-24T05:51:38.250Z,58.70
2022-12-24T05:54:06.396Z,53.58
2022-12-24T05:56:34.609Z,57.72
2022-12-24T05:59:02.609Z,54.83
2022-12-24T06:01:30.671Z,54.15
2022-12-24T06:03:59.212Z,58.85
2022-12-24T06:06:29.716Z,63.25
2022-12-24T06:08:58.103Z,59.97
2022-12-24T06:11:28.780Z,65.30
2022-12-24T06:13:57.169Z,59.70
2022-12-24T06:16:26.110Z,60.72
2022-12-24T06:18:54.607Z,64.93
2022-12-24T06:21:22.929Z,63.97
2022-12-24T06:23:52.529Z,66.13
2022-12-24T06:26:22.526Z,66.55
2022-12-24T06:28:51.733Z,65.88
2022-12-24T06:31:22.577Z,69.72
2022-12-24T06:33:51.257Z,74.53
2022-12-24T06:36:21.286Z,70.28
2022-12-24T06:38:50.017Z,67.47
2022-12-24T06:41:19.870Z,66.47
2022-12-24T06:43:49.108Z,65.80
2022-12-24T06:46:18.635Z,68.38
2022-12-24T06:48:47.124Z,66.30
2022-12-24T06:51:17.218Z,66.07
2022-12-24T06:53:45.196Z,68.93
2022-12-24T06:56:15.235Z,66.07
2022-12-24T06:58:44.966Z,70.60
2022-12-24T07:01:15.385Z,74.18
2022-12-24T07:03:43.851Z,71.50
2022-12-24T07:06:18.986Z,70.03
2022-12-24T07:08:47.244Z,67.80
2022-12-24T07:11:15.388Z,61.17
2022-12-24T07:13:44.693Z,67.95
2022-12-24T07:16:12.709Z,71.15
2022-12-24T07:18:40.734Z,74.55
2022-12-24T07:21:08.850Z,79.07
2022-12-24T07:23:36.794Z,85.07
2022-12-24T07:26:06.903Z,83.93
2022-12-24T07:28:35.019Z,93.88
2022-12-24T07:31:04.445Z,89.43
2022-12-24T07:33:32.667Z,88.65
2022-12-24T07:36:02.724Z,93.28
2022-12-24T07:38:31.296Z,86.97
2022-12-24T07:40:59.649Z,90.18
2022-12-24T07:43:28.545Z,89.97
2022-12-24T07:45:57.880Z,93.00
2022-12-24T07:48:29.475Z,87.20
2022-12-24T07:50:58.519Z,89.13
2022-12-24T07:53:27.625Z,87.50
2022-12-24T07:55:56.419Z,92.97
2022-12-24T07:58:24.988Z,97.53
2022-12-24T08:00:57.171Z,94.22
2022-12-24T08:03:25.661Z,103.82
2022-12-24T08:05:55.227Z,104.32
2022-12-24T08:08:23.189Z,107.60
2022-12-24T08:10:51.593Z,112.55
2022-12-24T08:13:19.563Z,110.03
2022-12-24T08:15:47.973Z,112.85
2022-12-24T08:18:16.031Z,114.72
2022-12-24T08:20:43.983Z,119.65
2022-12-24T08:23:13.307Z,122.05
2022-12-24T08:25:44.118Z,122.22
2022-12-24T08:28:12.083Z,125.15
2022-12-24T08:30:40.381Z,130.90
2022-12-24T08:33:08.334Z,128.48
2022-12-24T08:35:36.465Z,124.75
2022-12-24T08:38:04.393Z,130.32
2022-12-24T08:40:33.664Z,127.78
2022-12-24T08:43:02.927Z,135.70
2022-12-24T08:45:34.817Z,142.93
2022-12-24T08:48:08.320Z,139.90
2022-12-24T08:50:36.753Z,143.77
2022-12-24T08:53:04.687Z,148.18
2022-12-24T08:55:33.950Z,144.73
2022-12-24T08:58:02.378Z,156.05
2022-12-24T09:00:30.405Z,146.93
2022-12-24T09:02:58.609Z,149.02
2022-12-24T09:05:27.000Z,145.95
2022-12-24T09:07:55.009Z,134.85
2022-12-24T09:10:23.204Z,137.68
2022-12-24T09:12:52.748Z,132.20
2022-12-24T09:15:20.760Z,121.70
2022-12-24T09:17:48.785Z,122.15
2022-12-24T09:20:16.644Z,115.05
2022-12-24T09:22:44.688Z,104.60
2022-12-24T09:25:12.658Z,95.88
2022-12-24T09:27:40.663Z,91.78
2022-12-24T09:30:11.643Z,91.70
2022-12-24T09:32:39.566Z,88.10
2022-12-24T09:35:08.037Z,84.43
2022-12-24T09:37:36.089Z,82.05
2022-12-24T09:40:04.126Z,76.00
2022-12-24T09:42:43.207Z,71.78
2022-12-24T09:45:19.824Z,72.20
2022-12-24T09:47:51.676Z,61.03
2022-12-24T09:50:31.616Z,57.30
2022-12-24T09:53:02.675Z,50.20
2022-12-24T09:55:34.456Z,39.58
2022-12-24T09:58:06.079Z,40.22
2022-12-24T10:00:40.371Z,36.25
2022-12-24T10:03:16.071Z,35.13
2022-12-24T10:05:51.192Z,33.58
2022-12-24T10:08:25.732Z,31.52
2022-12-24T10:10:56.421Z,33.25
2022-12-24T10:13:39.230Z,34.22
2022-12-24T10:16:14.947Z,28.60
2022-12-24T10:18:51.818Z,30.15
2022-12-24T10:21:29.202Z,32.20
2022-12-24T10:24:06.843Z,32.00
2022-12-24T10:26:54.054Z,28.95
2022-12-24T10:29:27.382Z,30.58
2022-12-24T10:32:02.284Z,29.73
2022-12-24T10:34:34.617Z,29.83
2022-12-24T10:39:35.098Z,30.10
2022-12-24T10:42:03.929Z,29.52
2022-12-24T10:44:34.274Z,27.92
2022-12-24T10:47:04.321Z,25.63
2022-12-24T10:49:37.632Z,27.52
2022-12-24T10:52:12.017Z,27.45
2022-12-24T10:55:08.254Z,25.92
2022-12-24T10:57:36.725Z,25.92
2022-12-24T11:00:06.333Z,26.52
2022-12-24T11:02:38.061Z,24.42
2022-12-24T11:05:09.266Z,23.15
2022-12-24T11:07:37.494Z,24.27
2022-12-24T11:10:08.135Z,23.35
2022-12-24T11:12:40.365Z,26.00
2022-12-24T11:15:17.690Z,25.42
2022-12-24T11:17:54.951Z,23.50
2022-12-24T11:20:27.526Z,25.02
2022-12-24T11:22:56.465Z,25.00
2022-12-24T11:25:29.067Z,24.27
2022-12-24T11:27:57.841Z,23.52
2022-12-24T11:30:32.233Z,22.40
2022-12-24T11:33:32.831Z,21.48
2022-12-24T11:36:07.472Z,19.65
2022-12-24T11:38:37.099Z,22.48
2022-12-24T11:41:08.171Z,17.00
2022-12-24T11:43:48.473Z,18.90
2022-12-24T11:46:20.573Z,18.83
2022-12-24T11:49:08.076Z,15.98
2022-12-24T11:51:37.057Z,17.92
2022-12-24T11:54:13.965Z,18.55
2022-12-24T11:56:46.948Z,14.98
2022-12-24T11:59:20.394Z,15.70
2022-12-24T12:01:57.944Z,19.50
2022-12-24T12:04:31.950Z,18.27
2022-12-24T12:07:02.743Z,15.13
2022-12-24T12:09:34.892Z,17.33
2022-12-24T12:12:07.986Z,12.77
2022-12-24T12:14:39.728Z,13.55
2022-12-24T12:17:17.429Z,15.55
2022-12-24T12:19:51.612Z,14.80
2022-12-24T12:22:28.349Z,16.45
2022-12-24T12:25:00.134Z,13.45
2022-12-24T12:27:33.217Z,12.50
2022-12-24T12:30:05.794Z,12.35
2022-12-24T12:32:45.529Z,10.90
2022-12-24T12:35:25.702Z,14.20
2022-12-24T12:37:59.679Z,16.23
2022-12-24T12:40:40.781Z,14.45
2022-12-24T12:43:17.225Z,12.75
2022-12-24T12:45:52.602Z,13.70
2022-12-24T12:48:38.873Z,11.90
2022-12-24T12:51:12.073Z,13.32
2022-12-24T12:53:59.003Z,12.52
2022-12-24T12:56:32.074Z,11.75
2022-12-24T12:59:05.444Z,10.93
2022-12-24T13:01:44.863Z,13.20
2022-12-24T13:04:49.791Z,10.25
2022-12-24T13:08:01.976Z,10.82
2022-12-24T13:10:52.289Z,11.30
2022-12-24T13:13:43.887Z,13.95
2022-12-24T13:16:38.754Z,10.52
2022-12-24T13:19:22.836Z,9.98
2022-12-24T13:21:52.486Z,11.45
2022-12-24T13:24:26.022Z,10.38
2022-12-24T13:27:06.160Z,10.00
2022-12-24T13:29:52.018Z,11.07
2022-12-24T13:32:41.437Z,10.18
2022-12-24T13:35:39.104Z,9.13
2022-12-24T13:38:43.942Z,9.30
2022-12-24T13:41:52.324Z,8.30
2022-12-24T13:44:32.860Z,9.68
2022-12-24T13:47:25.281Z,7.82
2022-12-24T13:49:58.799Z,7.63
2022-12-24T13:52:32.888Z,7.57
2022-12-24T13:55:18.432Z,7.32
2022-12-24T13:57:57.238Z,7.93
2022-12-24T14:00:31.434Z,7.72
2022-12-24T14:03:03.940Z,8.32
2022-12-24T14:05:36.375Z,7.18
2022-12-24T14:08:07.641Z,7.03
2022-12-24T14:10:40.795Z,6.78
2022-12-24T14:13:45.177Z,8.38
2022-12-24T14:16:15.927Z,7.70
2022-12-24T14:18:47.490Z,7.47
2022-12-24T14:21:22.772Z,8.10
2022-12-24T14:23:57.438Z,8.15
2022-12-24T14:26:29.212Z,9.05
2022-12-24T14:29:01.969Z,8.57
2022-12-24T14:31:30.302Z,10.23
2022-12-24T14:34:08.037Z,9.23
2022-12-24T14:36:37.156Z,8.43
2022-12-24T14:39:07.680Z,9.23
2022-12-24T14:41:45.056Z,10.15
2022-12-24T14:44:22.935Z,10.07
2022-12-24T14:46:56.141Z,10.57
2022-12-24T14:49:39.233Z,10.43
2022-12-24T14:52:37.659Z,9.98
2022-12-24T14:55:29.146Z,11.07
2022-12-24T14:58:19.254Z,10.88
2022-12-24T15:00:48.874Z,12.57
2022-12-24T15:03:18.421Z,12.32
2022-12-24T15:05:51.725Z,12.50
2022-12-24T15:08:25.111Z,13.20
2022-12-24T15:10:55.575Z,13.27
2022-12-24T15:13:32.736Z,13.13
2022-12-24T15:16:09.018Z,12.60
2022-12-24T15:18:40.180Z,14.95
2022-12-24T15:21:16.170Z,15.07
2022-12-24T15:23:50.074Z,15.27
2022-12-24T15:26:26.551Z,15.82
2022-12-24T15:29:02.702Z,16.38
2022-12-24T15:31:33.074Z,18.30
2022-12-24T15:34:01.505Z,18.42
2022-12-24T15:36:31.891Z,17.30
2022-12-24T15:39:03.152Z,17.05
2022-12-24T15:41:38.260Z,20.00
2022-12-24T15:44:06.765Z,21.05
2022-12-24T15:46:36.131Z,22.88
2022-12-24T15:49:05.181Z,22.00
2022-12-24T15:51:40.512Z,21.23
2022-12-24T15:54:20.468Z,19.55
2022-12-24T15:56:48.726Z,20.00
2022-12-24T15:59:31.010Z,21.88
2022-12-24T16:02:32.740Z,21.00
2022-12-24T16:05:36.196Z,21.00
2022-12-24T16:08:23.233Z,22.25
2022-12-24T16:10:53.968Z,25.65
2022-12-24T16:13:24.324Z,24.88
2022-12-24T16:15:55.829Z,25.38
2022-12-24T16:18:28.386Z,29.38
2022-12-24T16:20:57.662Z,25.15
2022-12-24T16:23:28.089Z,29.88
2022-12-24T16:25:56.082Z,29.38
2022-12-24T16:28:23.992Z,32.35
2022-12-24T16:30:52.234Z,33.10
2022-12-24T16:33:23.418Z,35.47
2022-12-24T16:35:53.155Z,37.40
2022-12-24T16:38:21.154Z,38.53
2022-12-24T16:40:49.327Z,39.50
2022-12-24T16:43:34.873Z,41.03
2022-12-24T16:46:05.242Z,40.97
2022-12-24T16:48:36.272Z,40.13
2022-12-24T16:51:05.990Z,38.90
2022-12-24T16:53:34.063Z,38.90
2022-12-24T16:56:02.826Z,36.95
2022-12-24T16:58:30.947Z,38.92
2022-12-24T17:00:59.758Z,40.47
2022-12-24T17:03:27.867Z,42.63
2022-12-24T17:05:55.922Z,39.75
2022-12-24T17:08:25.433Z,43.88
2022-12-24T17:10:53.671Z,46.38
2022-12-24T17:13:21.870Z,43.92
2022-12-24T17:15:49.861Z,49.17
2022-12-24T17:18:18.341Z,53.03
2022-12-24T17:20:46.356Z,55.83
2022-12-24T17:23:14.376Z,60.80
2022-12-24T17:25:43.735Z,64.72
2022-12-24T17:28:11.967Z,60.53
2022-12-24T17:30:41.217Z,64.57
2022-12-24T17:33:14.389Z,64.53
2022-12-24T17:35:43.881Z,63.33
2022-12-24T17:38:11.921Z,67.90
2022-12-24T17:40:39.947Z,69.95
2022-12-24T17:43:09.589Z,65.15
2022-12-24T17:45:41.599Z,67.13
2022-12-24T17:48:09.646Z,70.25
2022-12-24T17:50:39.902Z,69.63
2022-12-24T17:53:07.980Z,64.68
2022-12-24T17:55:39.975Z,67.07
2022-12-24T17:58:09.460Z,69.63
2022-12-24T18:00:37.634Z,62.20
2022-12-24T18:03:06.107Z,65.18
2022-12-24T18:05:35.646Z,63.95
2022-12-24T18:08:03.691Z,70.43
2022-12-24T18:10:31.757Z,66.78
2022-12-24T18:12:59.640Z,52.97
2022-12-24T18:15:29.027Z,55.80
2022-12-24T18:17:59.262Z,63.97
2022-12-24T18:20:27.413Z,66.18
2022-12-24T18:22:55.476Z,71.70
2022-12-24T18:25:23.521Z,69.18
2022-12-24T18:27:52.129Z,66.63
2022-12-24T18:30:25.852Z,72.30
2022-12-24T18:32:56.955Z,78.30
2022-12-24T18:35:25.139Z,76.18
2022-12-24T18:37:53.292Z,75.57
2022-12-24T18:40:21.261Z,81.38
2022-12-24T18:42:49.199Z,84.72
2022-12-24T18:45:17.233Z,78.82
2022-12-24T18:47:45.199Z,78.70
2022-12-24T18:50:14.480Z,80.05
2022-12-24T18:52:42.432Z,84.72
2022-12-24T18:55:11.195Z,89.63
2022-12-24T18:57:39.240Z,86.60
2022-12-24T19:00:08.681Z,94.30
2022-12-24T19:02:36.933Z,96.40
2022-12-24T19:05:05.423Z,97.53
2022-12-24T19:07:34.928Z,100.32
2022-12-24T19:10:03.101Z,99.53
2022-12-24T19:12:31.096Z,99.40
2022-12-24T19:14:58.953Z,106.00
2022-12-24T19:17:26.980Z,111.03
2022-12-24T19:19:54.979Z,112.60
2022-12-24T19:22:22.916Z,118.97
2022-12-24T19:24:52.722Z,116.90
2022-12-24T19:27:20.775Z,113.55
2022-12-24T19:29:48.787Z,118.15
2022-12-24T19:32:16.943Z,127.40
2022-12-24T19:34:45.012Z,122.90
2022-12-24T19:37:12.928Z,125.68
2022-12-24T19:39:42.402Z,125.30
2022-12-24T19:42:11.765Z,128.68
2022-12-24T19:44:39.693Z,139.15
2022-12-24T19:47:07.632Z,136.07
2022-12-24T19:49:35.796Z,133.32
2022-12-24T19:52:03.747Z,133.32
2022-12-24T19:54:31.744Z,126.45
2022-12-24T19:56:59.712Z,126.80
2022-12-24T19:59:30.185Z,125.93
2022-12-24T20:01:58.292Z,127.70
2022-12-24T20:04:26.600Z,128.93
2022-12-24T20:07:00.115Z,135.77
2022-12-24T20:09:29.077Z,130.35
2022-12-24T20:11:57.051Z,129.13
2022-12-24T20:14:25.333Z,136.70
2022-12-24T20:16:54.875Z,135.23
2022-12-24T20:19:23.137Z,131.93
2022-12-24T20:21:51.201Z,136.70
2022-12-24T20:24:19.483Z,139.00
2022-12-24T20:26:47.477Z,145.13
2022-12-24T20:29:15.448Z,167.38
2022-12-24T20:31:43.590Z,156.57
2022-12-24T20:34:13.211Z,165.88
2022-12-24T20:36:41.654Z,166.82
2022-12-24T20:39:09.624Z,167.90
2022-12-24T20:41:37.737Z,163.30
2022-12-24T20:44:06.089Z,158.98
2022-12-24T20:46:35.252Z,161.80
2022-12-24T20:49:03.371Z,162.80
2022-12-24T20:51:33.064Z,164.55
2022-12-24T20:54:03.175Z,165.48
2022-12-24T20:56:31.849Z,176.98
2022-12-24T20:59:01.006Z,175.18
2022-12-24T21:01:29.573Z,180.35
2022-12-24T21:04:00.218Z,181.23
2022-12-24T21:06:28.184Z,175.88
2022-12-24T21:08:57.549Z,180.88
2022-12-24T21:11:43.610Z,191.27
2022-12-24T21:14:12.322Z,176.68
2022-12-24T21:16:41.485Z,178.02
2022-12-24T21:19:12.815Z,182.43
2022-12-24T21:21:47.848Z,190.38
2022-12-24T21:24:17.793Z,188.48
2022-12-24T21:26:46.028Z,182.52
2022-12-24T21:29:14.675Z,194.50
2022-12-24T21:31:42.720Z,195.25
2022-12-24T21:34:10.604Z,215.15
2022-12-24T21:36:38.571Z,213.15
2022-12-24T21:39:07.759Z,224.70
2022-12-24T21:41:37.294Z,230.18
2022-12-24T21:44:05.301Z,224.23
2022-12-24T21:46:33.279Z,225.30
2022-12-24T21:49:18.474Z,246.48
2022-12-24T21:51:49.127Z,250.52
2022-12-24T21:54:28.586Z,252.75
2022-12-24T21:57:17.213Z,244.38
2022-12-24T21:59:45.243Z,242.57
2022-12-24T22:02:15.495Z,235.77
2022-12-24T22:04:44.165Z,239.43
2022-12-24T22:07:38.612Z,229.88
2022-12-24T22:10:25.487Z,222.32
2022-12-24T22:12:55.392Z,232.57
2022-12-24T22:15:23.974Z,235.15
2022-12-24T22:17:51.926Z,231.57
2022-12-24T22:20:19.957Z,228.20
2022-12-24T22:22:48.678Z,213.05
2022-12-24T22:25:17.186Z,213.20
2022-12-24T22:27:45.373Z,215.82
2022-12-24T22:30:14.895Z,206.35
2022-12-24T22:32:42.852Z,208.52
2022-12-24T22:35:11.448Z,219.98
2022-12-24T22:37:39.661Z,223.55
2022-12-24T22:40:09.231Z,228.70
2022-12-24T22:42:37.717Z,235.20
2022-12-24T22:45:06.806Z,249.45
2022-12-24T22:47:36.407Z,250.63
2022-12-24T22:50:04.641Z,254.43
2022-12-24T22:52:33.156Z,264.77
2022-12-24T22:55:01.191Z,269.80
2022-12-24T22:57:29.560Z,272.58
2022-12-24T22:59:57.452Z,282.77
2022-12-24T23:02:28.453Z,284.80
2022-12-24T23:04:58.384Z,285.00
2022-12-24T23:07:26.293Z,286.52
2022-12-24T23:09:54.168Z,283.58
2022-12-24T23:12:42.107Z,290.00
2022-12-24T23:15:09.868Z,287.17
2022-12-24T23:17:37.794Z,283.98
2022-12-24T23:20:09.123Z,292.45
2022-12-24T23:22:37.120Z,301.35
2022-12-24T23:25:05.365Z,299.40
2022-12-24T23:27:33.279Z,301.27
2022-12-24T23:30:01.271Z,300.52
2022-12-24T23:32:29.259Z,303.40
2022-12-24T23:34:57.265Z,303.27
2022-12-24T23:37:33.004Z,303.95
2022-12-24T23:40:02.956Z,302.52
2022-12-24T23:42:31.210Z,298.95
2022-12-24T23:44:59.165Z,301.15
2022-12-24T23:47:28.026Z,301.23
2022-12-24T23:49:56.323Z,302.85
2022-12-24T23:52:24.420Z,298.17
2022-12-24T23:54:53.728Z,297.23
2022-12-24T23:57:21.715Z,296.48
2022-12-24T23:59:49.655Z,290.08
